Froeybanken — LJML — position and weather

sailwx.info

Track history (hours):
 
Tides and Currents Weather Stations Pressure Air Temp Water Temp Dewpoint Dewpoint Depression Visibility Wind Speed Wind Dir Waves Ship Positions

Froeybanken

Last reported at 2017-Mar-22 21:06 UTC. Time now 2017-Mar-24 15:58 UTC.
Position N 67°56' E 013°05'.

Length 22 m; draft 3.6 m.

Type: Fishing. MMSI: 257470500.

Date/timePositionNaut miles runAvg speedWind from/ knotsBaromVisibWave heightAir tempDewpointWater temp
2017-Mar-22 21:06N 67°56' E 013°05'0 0.0
2017-Mar-22 20:34N 67°56' E 013°05'0 0.0
2017-Mar-22 19:34N 67°56' E 013°05'0 0.0
2017-Mar-22 18:29N 67°56' E 013°05'0 0.0
2017-Mar-22 17:33N 67°56' E 013°05'0 0.0
2017-Mar-22 16:32N 67°56' E 013°05'0 0.0
2017-Mar-22 15:30N 67°56' E 013°05'0 0.0
2017-Mar-22 14:31N 67°56' E 013°05'4 1.1
2017-Mar-22 11:12N 67°53' E 013°11'1 0.8
2017-Mar-22 10:20N 67°52' E 013°12'1 0.3
2017-Mar-22 07:30N 67°53' E 013°11'1 0.3
2017-Mar-22 04:33N 67°54' E 013°09'3 0.7
2017-Mar-22 00:24N 67°56' E 013°05'0 0.0
2017-Mar-21 23:23N 67°56' E 013°05'1 0.1
2017-Mar-21 14:30N 67°56' E 013°07'4 2.1
2017-Mar-21 12:24N 67°52' E 013°12'0 0.1
2017-Mar-21 09:28N 67°52' E 013°12'0 0.2
2017-Mar-21 08:32N 67°53' E 013°12'0 0.3
2017-Mar-21 07:31N 67°53' E 013°11'1 0.5
2017-Mar-21 06:26N 67°53' E 013°10'0 0.3
2017-Mar-21 05:31N 67°53' E 013°10'1 0.8
2017-Mar-21 04:26N 67°54' E 013°08'2 1.2
2017-Mar-21 02:32N 67°56' E 013°05'0 0.0
2017-Mar-21 01:33N 67°56' E 013°05'0 0.0
2017-Mar-21 00:33N 67°56' E 013°05'0 0.0
2017-Mar-20 23:27N 67°56' E 013°05'0 0.0
2017-Mar-20 20:26N 67°56' E 013°05'0 0.0
2017-Mar-20 19:20N 67°56' E 013°05'0 0.0
2017-Mar-20 18:32N 67°56' E 013°05'0 0.0
2017-Mar-20 17:33N 67°56' E 013°05'0 0.0
2017-Mar-20 16:33N 67°56' E 013°05'0 0.0
2017-Mar-20 15:33N 67°56' E 013°05'0 0.0
2017-Mar-20 14:33N 67°56' E 013°05'0 0.0
2017-Mar-20 13:33N 67°56' E 013°05'0 0.0
2017-Mar-20 12:24N 67°56' E 013°05'0 0.2
2017-Mar-20 11:31N 67°56' E 013°05'4 3.9
2017-Mar-20 10:33N 67°53' E 013°10'2 1.9
2017-Mar-20 09:32N 67°52' E 013°14'2 1.1
2017-Mar-20 07:28N 67°53' E 013°09'1 0.6
2017-Mar-20 06:33N 67°53' E 013°11'2 2.0
2017-Mar-20 05:33N 67°51' E 013°13'2 2.2
2017-Mar-20 04:33N 67°53' E 013°10'4 3.5
2017-Mar-20 03:32N 67°56' E 013°05'0 0.0
2017-Mar-20 02:33N 67°56' E 013°05'0 0.0
2017-Mar-20 01:29N 67°56' E 013°05'0 0.0
2017-Mar-20 00:32N 67°56' E 013°05'0 0.0
2017-Mar-19 23:15N 67°56' E 013°05'0 0.0
2017-Mar-19 22:33N 67°56' E 013°05'0 0.0
2017-Mar-19 21:33N 67°56' E 013°05'0 0.0
2017-Mar-19 20:33N 67°56' E 013°05'0 0.0
2017-Mar-19 19:30N 67°56' E 013°05'0 0.0
2017-Mar-19 18:18N 67°56' E 013°05'0 0.0
2017-Mar-19 17:31N 67°56' E 013°05'0 0.0
2017-Mar-19 16:30N 67°56' E 013°05'1 0.2
2017-Mar-19 11:15N 67°55' E 013°08'4 6.2
2017-Mar-19 10:34N 67°52' E 013°13'0 0.1
2017-Mar-19 07:33N 67°51' E 013°12'5 0.4
2017-Mar-18 18:33N 67°56' E 013°06'5 4.7
2017-Mar-18 17:24N 67°51' E 013°14'0 0.1
2017-Mar-18 14:31N 67°51' E 013°13'0 0.2
2017-Mar-18 13:33N 67°52' E 013°13'1 0.2
2017-Mar-18 10:10N 67°52' E 013°11'0 0.3
2017-Mar-18 09:25N 67°52' E 013°12'1 0.6
2017-Mar-18 08:22N 67°51' E 013°12'0 0.1
2017-Mar-18 07:34N 67°51' E 013°13'0 0.2
2017-Mar-18 05:28N 67°51' E 013°13'2 2.0
2017-Mar-18 04:27N 67°53' E 013°11'3 0.2
2017-Mar-17 12:33N 67°51' E 013°14'15 1.5
2017-Mar-17 02:33N 68°05' E 013°13'0 0.0
2017-Mar-17 01:29N 68°05' E 013°13'0 0.0
2017-Mar-17 00:33N 68°05' E 013°13'0 0.0
2017-Mar-16 23:04N 68°05' E 013°13'  
Track history (hours):
 
Tides and Currents Weather Stations Pressure Air Temp Water Temp Dewpoint Dewpoint Depression Visibility Wind Speed Wind Dir Waves Ship Positions

Froeybanken

Last reported at 2017-Mar-22 21:06 UTC. Time now 2017-Mar-24 15:58 UTC.
Position N 67°56' E 013°05'.

Length 22 m; draft 3.6 m.

Type: Fishing. MMSI: 257470500.

Date/timePositionNaut miles runAvg speedWind from/ knotsBaromVisibWave heightAir tempDewpointWater temp
2017-Mar-22 21:06N 67°56' E 013°05'0 0.0
2017-Mar-22 20:34N 67°56' E 013°05'0 0.0
2017-Mar-22 19:34N 67°56' E 013°05'0 0.0
2017-Mar-22 18:29N 67°56' E 013°05'0 0.0
2017-Mar-22 17:33N 67°56' E 013°05'0 0.0
2017-Mar-22 16:32N 67°56' E 013°05'0 0.0
2017-Mar-22 15:30N 67°56' E 013°05'0 0.0
2017-Mar-22 14:31N 67°56' E 013°05'4 1.1
2017-Mar-22 11:12N 67°53' E 013°11'1 0.8
2017-Mar-22 10:20N 67°52' E 013°12'1 0.3
2017-Mar-22 07:30N 67°53' E 013°11'1 0.3
2017-Mar-22 04:33N 67°54' E 013°09'3 0.7
2017-Mar-22 00:24N 67°56' E 013°05'0 0.0
2017-Mar-21 23:23N 67°56' E 013°05'1 0.1
2017-Mar-21 14:30N 67°56' E 013°07'4 2.1
2017-Mar-21 12:24N 67°52' E 013°12'0 0.1
2017-Mar-21 09:28N 67°52' E 013°12'0 0.2
2017-Mar-21 08:32N 67°53' E 013°12'0 0.3
2017-Mar-21 07:31N 67°53' E 013°11'1 0.5
2017-Mar-21 06:26N 67°53' E 013°10'0 0.3
2017-Mar-21 05:31N 67°53' E 013°10'1 0.8
2017-Mar-21 04:26N 67°54' E 013°08'2 1.2
2017-Mar-21 02:32N 67°56' E 013°05'0 0.0
2017-Mar-21 01:33N 67°56' E 013°05'0 0.0
2017-Mar-21 00:33N 67°56' E 013°05'0 0.0
2017-Mar-20 23:27N 67°56' E 013°05'0 0.0
2017-Mar-20 20:26N 67°56' E 013°05'0 0.0
2017-Mar-20 19:20N 67°56' E 013°05'0 0.0
2017-Mar-20 18:32N 67°56' E 013°05'0 0.0
2017-Mar-20 17:33N 67°56' E 013°05'0 0.0
2017-Mar-20 16:33N 67°56' E 013°05'0 0.0
2017-Mar-20 15:33N 67°56' E 013°05'0 0.0
2017-Mar-20 14:33N 67°56' E 013°05'0 0.0
2017-Mar-20 13:33N 67°56' E 013°05'0 0.0
2017-Mar-20 12:24N 67°56' E 013°05'0 0.2
2017-Mar-20 11:31N 67°56' E 013°05'4 3.9
2017-Mar-20 10:33N 67°53' E 013°10'2 1.9
2017-Mar-20 09:32N 67°52' E 013°14'2 1.1
2017-Mar-20 07:28N 67°53' E 013°09'1 0.6
2017-Mar-20 06:33N 67°53' E 013°11'2 2.0
2017-Mar-20 05:33N 67°51' E 013°13'2 2.2
2017-Mar-20 04:33N 67°53' E 013°10'4 3.5
2017-Mar-20 03:32N 67°56' E 013°05'0 0.0
2017-Mar-20 02:33N 67°56' E 013°05'0 0.0
2017-Mar-20 01:29N 67°56' E 013°05'0 0.0
2017-Mar-20 00:32N 67°56' E 013°05'0 0.0
2017-Mar-19 23:15N 67°56' E 013°05'0 0.0
2017-Mar-19 22:33N 67°56' E 013°05'0 0.0
2017-Mar-19 21:33N 67°56' E 013°05'0 0.0
2017-Mar-19 20:33N 67°56' E 013°05'0 0.0
2017-Mar-19 19:30N 67°56' E 013°05'0 0.0
2017-Mar-19 18:18N 67°56' E 013°05'0 0.0
2017-Mar-19 17:31N 67°56' E 013°05'0 0.0
2017-Mar-19 16:30N 67°56' E 013°05'1 0.2
2017-Mar-19 11:15N 67°55' E 013°08'4 6.2
2017-Mar-19 10:34N 67°52' E 013°13'0 0.1
2017-Mar-19 07:33N 67°51' E 013°12'5 0.4
2017-Mar-18 18:33N 67°56' E 013°06'5 4.7
2017-Mar-18 17:24N 67°51' E 013°14'0 0.1
2017-Mar-18 14:31N 67°51' E 013°13'0 0.2
2017-Mar-18 13:33N 67°52' E 013°13'1 0.2
2017-Mar-18 10:10N 67°52' E 013°11'0 0.3
2017-Mar-18 09:25N 67°52' E 013°12'1 0.6
2017-Mar-18 08:22N 67°51' E 013°12'0 0.1
2017-Mar-18 07:34N 67°51' E 013°13'0 0.2
2017-Mar-18 05:28N 67°51' E 013°13'2 2.0
2017-Mar-18 04:27N 67°53' E 013°11'3 0.2
2017-Mar-17 12:33N 67°51' E 013°14'15 1.5
2017-Mar-17 02:33N 68°05' E 013°13'0 0.0
2017-Mar-17 01:29N 68°05' E 013°13'0 0.0
2017-Mar-17 00:33N 68°05' E 013°13'0 0.0
2017-Mar-16 23:04N 68°05' E 013°13'  

Dump ship's entire track history